Pollok, Texas
Current Conditions -  °F | °C
As of 12:15 PM on Thursday 18 Dec 2014 (Local Time) from KOCH Reporting Station
Overcast Overcast  
Wind Chill: 52°   Ceiling: 1000
Heat Index: 52°   Visibility: 7mi
Dew Point: 46°   Wind: 5mph
Humidity: 82%   Direction: 140°SE
Pressure: 30.13"   Gusts: NA
Location:  31.45°N, 94.87°W
Report Text: KOCH 181815Z AUTO 14004KT 7SM OVC010 11/08 A3013 RMK AO1
Loading
Personal Weather Stations






























Interactive Weather Map New forecast layout! Learn more

10-Day Weather Forecast

Advertisements
Track Severe Weather on mobile